sensor_id;sensor_type;location;lat;lon;timestamp;pressure;altitude;pressure_sealevel;temperature;humidity
64086;BME280;50333;47.436;21.390;2022-08-30T00:02:20;100696.66;;;23.82;54.67
64086;BME280;50333;47.436;21.390;2022-08-30T00:04:51;100704.56;;;24.10;54.05
64086;BME280;50333;47.436;21.390;2022-08-30T00:07:21;100697.63;;;23.61;55.12
64086;BME280;50333;47.436;21.390;2022-08-30T00:09:48;100706.34;;;23.46;55.81
64086;BME280;50333;47.436;21.390;2022-08-30T00:12:17;100707.53;;;23.77;54.71
64086;BME280;50333;47.436;21.390;2022-08-30T00:14:47;100706.41;;;23.78;54.77
64086;BME280;50333;47.436;21.390;2022-08-30T00:17:15;100714.22;;;23.70;54.68
64086;BME280;50333;47.436;21.390;2022-08-30T00:19:43;100709.41;;;23.60;54.99
64086;BME280;50333;47.436;21.390;2022-08-30T00:22:11;100710.47;;;23.87;53.88
64086;BME280;50333;47.436;21.390;2022-08-30T00:24:38;100711.87;;;23.81;54.33
64086;BME280;50333;47.436;21.390;2022-08-30T00:27:07;100708.81;;;23.39;55.10
64086;BME280;50333;47.436;21.390;2022-08-30T00:29:34;100710.91;;;23.45;55.14
64086;BME280;50333;47.436;21.390;2022-08-30T00:32:03;100710.69;;;23.66;54.75
64086;BME280;50333;47.436;21.390;2022-08-30T00:34:31;100712.25;;;23.67;54.74
64086;BME280;50333;47.436;21.390;2022-08-30T00:36:59;100708.03;;;23.66;54.62
64086;BME280;50333;47.436;21.390;2022-08-30T00:39:27;100708.31;;;23.49;55.13
64086;BME280;50333;47.436;21.390;2022-08-30T00:41:55;100705.88;;;23.72;54.32
64086;BME280;50333;47.436;21.390;2022-08-30T00:44:23;100707.84;;;23.59;54.59
64086;BME280;50333;47.436;21.390;2022-08-30T00:46:50;100712.59;;;23.38;54.57
64086;BME280;50333;47.436;21.390;2022-08-30T00:49:18;100703.69;;;23.46;54.94
64086;BME280;50333;47.436;21.390;2022-08-30T00:51:47;100706.28;;;23.30;55.25
64086;BME280;50333;47.436;21.390;2022-08-30T00:54:15;100699.59;;;23.48;54.84
64086;BME280;50333;47.436;21.390;2022-08-30T00:56:47;100698.06;;;23.63;54.33
64086;BME280;50333;47.436;21.390;2022-08-30T00:59:15;100698.72;;;23.04;55.61
64086;BME280;50333;47.436;21.390;2022-08-30T01:01:43;100701.94;;;23.66;54.27
64086;BME280;50333;47.436;21.390;2022-08-30T01:04:12;100698.88;;;23.23;55.27
64086;BME280;50333;47.436;21.390;2022-08-30T01:06:41;100703.12;;;23.24;54.88
64086;BME280;50333;47.436;21.390;2022-08-30T01:09:09;100703.31;;;23.31;55.10
64086;BME280;50333;47.436;21.390;2022-08-30T01:11:38;100702.81;;;23.42;54.67
64086;BME280;50333;47.436;21.390;2022-08-30T01:14:08;100701.97;;;23.38;55.08
64086;BME280;50333;47.436;21.390;2022-08-30T01:16:40;100697.59;;;23.17;55.68
64086;BME280;50333;47.436;21.390;2022-08-30T01:22:27;100704.53;;;23.34;55.33
64086;BME280;50333;47.436;21.390;2022-08-30T01:24:58;100699.88;;;23.75;53.86
64086;BME280;50333;47.436;21.390;2022-08-30T01:27:27;100706.00;;;23.19;55.54
64086;BME280;50333;47.436;21.390;2022-08-30T01:29:55;100703.12;;;23.24;55.37
64086;BME280;50333;47.436;21.390;2022-08-30T01:32:26;100706.25;;;23.14;55.52
64086;BME280;50333;47.436;21.390;2022-08-30T01:34:56;100700.03;;;23.22;55.56
64086;BME280;50333;47.436;21.390;2022-08-30T01:37:28;100698.97;;;23.39;54.93
64086;BME280;50333;47.436;21.390;2022-08-30T01:39:58;100693.53;;;22.95;56.29
64086;BME280;50333;47.436;21.390;2022-08-30T01:42:26;100699.34;;;23.25;55.53
64086;BME280;50333;47.436;21.390;2022-08-30T01:44:54;100693.19;;;23.37;54.88
64086;BME280;50333;47.436;21.390;2022-08-30T01:47:23;100694.50;;;23.15;55.64
64086;BME280;50333;47.436;21.390;2022-08-30T01:49:51;100691.91;;;22.78;56.84
64086;BME280;50333;47.436;21.390;2022-08-30T01:52:18;100686.34;;;22.83;56.10
64086;BME280;50333;47.436;21.390;2022-08-30T01:54:47;100693.25;;;22.59;56.58
64086;BME280;50333;47.436;21.390;2022-08-30T01:57:17;100695.47;;;22.70;56.12
64086;BME280;50333;47.436;21.390;2022-08-30T01:59:46;100680.09;;;23.04;55.38
64086;BME280;50333;47.436;21.390;2022-08-30T02:02:19;100688.13;;;22.79;56.01
64086;BME280;50333;47.436;21.390;2022-08-30T02:04:49;100675.28;;;22.81;55.86
64086;BME280;50333;47.436;21.390;2022-08-30T02:07:19;100677.22;;;23.09;54.85
64086;BME280;50333;47.436;21.390;2022-08-30T02:09:47;100678.34;;;23.08;54.94
64086;BME280;50333;47.436;21.390;2022-08-30T02:12:15;100683.22;;;23.06;54.84
64086;BME280;50333;47.436;21.390;2022-08-30T02:14:43;100679.53;;;22.57;55.75
64086;BME280;50333;47.436;21.390;2022-08-30T02:17:12;100674.72;;;22.88;54.89
64086;BME280;50333;47.436;21.390;2022-08-30T02:19:41;100677.31;;;22.72;55.17
64086;BME280;50333;47.436;21.390;2022-08-30T02:22:10;100684.03;;;22.82;54.71
64086;BME280;50333;47.436;21.390;2022-08-30T02:24:38;100682.22;;;22.98;54.38
64086;BME280;50333;47.436;21.390;2022-08-30T02:27:06;100680.87;;;22.51;55.49
64086;BME280;50333;47.436;21.390;2022-08-30T02:29:34;100683.34;;;22.85;54.40
64086;BME280;50333;47.436;21.390;2022-08-30T02:32:03;100682.88;;;22.42;55.26
64086;BME280;50333;47.436;21.390;2022-08-30T02:34:31;100681.94;;;22.75;54.71
64086;BME280;50333;47.436;21.390;2022-08-30T02:36:59;100684.81;;;22.82;54.33
64086;BME280;50333;47.436;21.390;2022-08-30T02:39:27;100682.44;;;22.52;54.47
64086;BME280;50333;47.436;21.390;2022-08-30T02:41:55;100677.19;;;22.68;54.19
64086;BME280;50333;47.436;21.390;2022-08-30T02:44:23;100683.91;;;22.90;53.49
64086;BME280;50333;47.436;21.390;2022-08-30T02:46:51;100675.50;;;22.76;53.67
64086;BME280;50333;47.436;21.390;2022-08-30T02:49:19;100685.19;;;22.56;54.18
64086;BME280;50333;47.436;21.390;2022-08-30T02:52:02;100688.37;;;22.62;54.18
64086;BME280;50333;47.436;21.390;2022-08-30T02:54:31;100682.66;;;22.47;54.20
64086;BME280;50333;47.436;21.390;2022-08-30T02:56:59;100687.34;;;22.04;55.49
64086;BME280;50333;47.436;21.390;2022-08-30T02:59:33;100683.19;;;22.53;54.26
64086;BME280;50333;47.436;21.390;2022-08-30T03:02:06;100681.66;;;22.27;54.35
64086;BME280;50333;47.436;21.390;2022-08-30T03:04:35;100686.62;;;22.53;54.11
64086;BME280;50333;47.436;21.390;2022-08-30T03:07:05;100684.78;;;22.94;52.72
64086;BME280;50333;47.436;21.390;2022-08-30T03:09:34;100684.19;;;22.73;53.30
64086;BME280;50333;47.436;21.390;2022-08-30T03:12:03;100688.81;;;22.64;53.71
64086;BME280;50333;47.436;21.390;2022-08-30T03:14:35;100695.72;;;22.52;54.08
64086;BME280;50333;47.436;21.390;2022-08-30T03:17:06;100699.44;;;22.76;53.32
64086;BME280;50333;47.436;21.390;2022-08-30T03:19:43;100693.44;;;22.79;53.45
64086;BME280;50333;47.436;21.390;2022-08-30T03:22:11;100700.94;;;23.02;52.72
64086;BME280;50333;47.436;21.390;2022-08-30T03:24:39;100699.03;;;23.14;52.43
64086;BME280;50333;47.436;21.390;2022-08-30T03:27:07;100701.34;;;23.16;52.32
64086;BME280;50333;47.436;21.390;2022-08-30T03:29:35;100696.09;;;22.91;52.97
64086;BME280;50333;47.436;21.390;2022-08-30T03:32:03;100697.84;;;23.00;52.73
64086;BME280;50333;47.436;21.390;2022-08-30T03:34:31;100698.72;;;23.04;52.64
64086;BME280;50333;47.436;21.390;2022-08-30T03:36:59;100701.50;;;23.07;52.59
64086;BME280;50333;47.436;21.390;2022-08-30T03:39:27;100695.66;;;22.89;52.85
64086;BME280;50333;47.436;21.390;2022-08-30T03:41:55;100705.66;;;22.80;52.93
64086;BME280;50333;47.436;21.390;2022-08-30T03:44:23;100705.81;;;23.12;52.36
64086;BME280;50333;47.436;21.390;2022-08-30T03:46:51;100708.72;;;23.07;52.58
64086;BME280;50333;47.436;21.390;2022-08-30T03:49:19;100709.56;;;22.98;52.64
64086;BME280;50333;47.436;21.390;2022-08-30T03:51:48;100713.28;;;23.34;51.84
64086;BME280;50333;47.436;21.390;2022-08-30T03:54:16;100716.22;;;23.17;52.25
64086;BME280;50333;47.436;21.390;2022-08-30T03:56:44;100715.69;;;23.11;52.34
64086;BME280;50333;47.436;21.390;2022-08-30T03:59:12;100712.00;;;23.16;52.20
64086;BME280;50333;47.436;21.390;2022-08-30T04:01:40;100711.81;;;23.09;52.42
64086;BME280;50333;47.436;21.390;2022-08-30T04:04:13;100711.37;;;22.94;52.76
64086;BME280;50333;47.436;21.390;2022-08-30T04:06:48;100712.94;;;23.08;52.43
64086;BME280;50333;47.436;21.390;2022-08-30T04:09:17;100713.66;;;23.21;52.31
64086;BME280;50333;47.436;21.390;2022-08-30T04:11:45;100713.12;;;23.43;51.64
64086;BME280;50333;47.436;21.390;2022-08-30T04:14:13;100718.44;;;23.15;52.34
64086;BME280;50333;47.436;21.390;2022-08-30T04:16:41;100716.78;;;22.98;52.50
64086;BME280;50333;47.436;21.390;2022-08-30T04:19:09;100722.03;;;22.82;53.18
64086;BME280;50333;47.436;21.390;2022-08-30T04:21:37;100720.78;;;23.04;52.61
64086;BME280;50333;47.436;21.390;2022-08-30T04:24:11;100716.84;;;23.26;52.06
64086;BME280;50333;47.436;21.390;2022-08-30T04:26:39;100718.69;;;22.97;52.17
64086;BME280;50333;47.436;21.390;2022-08-30T04:29:06;100726.62;;;23.22;51.79
64086;BME280;50333;47.436;21.390;2022-08-30T04:31:34;100727.19;;;23.44;51.09
64086;BME280;50333;47.436;21.390;2022-08-30T04:34:02;100734.56;;;23.34;51.25
64086;BME280;50333;47.436;21.390;2022-08-30T04:36:31;100731.59;;;23.52;50.72
64086;BME280;50333;47.436;21.390;2022-08-30T04:38:59;100737.59;;;23.49;50.90
64086;BME280;50333;47.436;21.390;2022-08-30T04:41:27;100736.25;;;23.55;50.41
64086;BME280;50333;47.436;21.390;2022-08-30T04:43:55;100741.94;;;23.69;50.16
64086;BME280;50333;47.436;21.390;2022-08-30T04:46:23;100742.84;;;23.89;49.62
64086;BME280;50333;47.436;21.390;2022-08-30T04:48:51;100746.47;;;23.81;49.59
64086;BME280;50333;47.436;21.390;2022-08-30T04:51:18;100745.44;;;23.86;49.57
64086;BME280;50333;47.436;21.390;2022-08-30T04:53:46;100754.31;;;24.06;49.06
64086;BME280;50333;47.436;21.390;2022-08-30T04:56:17;100760.09;;;23.80;49.46
64086;BME280;50333;47.436;21.390;2022-08-30T04:58:45;100762.16;;;23.70;49.73
64086;BME280;50333;47.436;21.390;2022-08-30T05:01:16;100758.75;;;23.29;50.60
64086;BME280;50333;47.436;21.390;2022-08-30T05:03:47;100754.31;;;23.90;49.27
64086;BME280;50333;47.436;21.390;2022-08-30T05:06:16;100755.66;;;23.27;50.60
64086;BME280;50333;47.436;21.390;2022-08-30T05:08:44;100759.00;;;23.00;51.58
64086;BME280;50333;47.436;21.390;2022-08-30T05:11:14;100763.22;;;23.53;50.41
64086;BME280;50333;47.436;21.390;2022-08-30T05:13:43;100765.41;;;23.80;49.90
64086;BME280;50333;47.436;21.390;2022-08-30T05:16:12;100763.25;;;23.69;50.07
64086;BME280;50333;47.436;21.390;2022-08-30T05:18:46;100764.25;;;23.37;51.04
64086;BME280;50333;47.436;21.390;2022-08-30T05:21:23;100761.78;;;23.44;50.67
64086;BME280;50333;47.436;21.390;2022-08-30T05:23:57;100753.22;;;23.79;49.81
64086;BME280;50333;47.436;21.390;2022-08-30T05:26:29;100753.91;;;23.76;49.61
64086;BME280;50333;47.436;21.390;2022-08-30T05:28:58;100764.34;;;23.68;50.13
64086;BME280;50333;47.436;21.390;2022-08-30T05:31:33;100761.03;;;24.16;48.93
64086;BME280;50333;47.436;21.390;2022-08-30T05:34:02;100768.81;;;24.08;49.29
64086;BME280;50333;47.436;21.390;2022-08-30T05:36:32;100772.19;;;24.37;48.45
64086;BME280;50333;47.436;21.390;2022-08-30T05:39:03;100767.75;;;24.73;47.59
64086;BME280;50333;47.436;21.390;2022-08-30T05:41:32;100764.16;;;24.85;46.81
64086;BME280;50333;47.436;21.390;2022-08-30T05:44:00;100774.91;;;24.89;47.06
64086;BME280;50333;47.436;21.390;2022-08-30T05:46:30;100769.34;;;24.78;46.44
64086;BME280;50333;47.436;21.390;2022-08-30T05:49:06;100770.97;;;24.82;46.44
64086;BME280;50333;47.436;21.390;2022-08-30T05:51:35;100770.19;;;25.17;45.47
64086;BME280;50333;47.436;21.390;2022-08-30T05:54:11;100769.19;;;25.06;45.95
64086;BME280;50333;47.436;21.390;2022-08-30T05:56:41;100779.22;;;25.48;45.23
64086;BME280;50333;47.436;21.390;2022-08-30T05:59:12;100779.72;;;25.54;44.26
64086;BME280;50333;47.436;21.390;2022-08-30T06:01:43;100780.47;;;25.35;44.01
64086;BME280;50333;47.436;21.390;2022-08-30T06:04:12;100774.03;;;25.55;43.29
64086;BME280;50333;47.436;21.390;2022-08-30T06:06:42;100777.22;;;25.65;43.91
64086;BME280;50333;47.436;21.390;2022-08-30T06:09:12;100779.87;;;25.84;43.18
64086;BME280;50333;47.436;21.390;2022-08-30T06:11:41;100770.22;;;25.56;44.07
64086;BME280;50333;47.436;21.390;2022-08-30T06:14:09;100776.44;;;25.84;43.38
64086;BME280;50333;47.436;21.390;2022-08-30T06:16:39;100767.25;;;25.62;42.96
64086;BME280;50333;47.436;21.390;2022-08-30T06:19:08;100779.16;;;25.45;43.65
64086;BME280;50333;47.436;21.390;2022-08-30T06:21:38;100773.00;;;25.05;43.98
64086;BME280;50333;47.436;21.390;2022-08-30T06:24:09;100779.16;;;25.45;42.93
64086;BME280;50333;47.436;21.390;2022-08-30T06:26:45;100787.09;;;25.06;43.45
64086;BME280;50333;47.436;21.390;2022-08-30T06:29:17;100781.69;;;24.67;44.34
64086;BME280;50333;47.436;21.390;2022-08-30T06:31:45;100784.16;;;25.11;43.39
64086;BME280;50333;47.436;21.390;2022-08-30T06:34:14;100782.72;;;24.97;43.33
64086;BME280;50333;47.436;21.390;2022-08-30T06:36:42;100793.37;;;24.62;44.75
64086;BME280;50333;47.436;21.390;2022-08-30T06:39:10;100781.34;;;25.03;43.54
64086;BME280;50333;47.436;21.390;2022-08-30T06:41:39;100785.50;;;25.20;43.36
64086;BME280;50333;47.436;21.390;2022-08-30T06:44:10;100800.34;;;24.67;44.81
64086;BME280;50333;47.436;21.390;2022-08-30T06:46:38;100791.44;;;24.94;43.84
64086;BME280;50333;47.436;21.390;2022-08-30T06:49:06;100789.47;;;24.91;43.97
64086;BME280;50333;47.436;21.390;2022-08-30T06:51:36;100796.41;;;24.96;44.52
64086;BME280;50333;47.436;21.390;2022-08-30T06:54:07;100799.84;;;25.51;43.57
64086;BME280;50333;47.436;21.390;2022-08-30T06:56:39;100797.56;;;25.14;43.73
64086;BME280;50333;47.436;21.390;2022-08-30T06:59:25;100796.84;;;25.53;43.07
64086;BME280;50333;47.436;21.390;2022-08-30T07:01:54;100793.13;;;25.57;42.57
64086;BME280;50333;47.436;21.390;2022-08-30T07:04:22;100803.16;;;25.09;43.13
64086;BME280;50333;47.436;21.390;2022-08-30T07:06:51;100797.47;;;25.46;43.10
64086;BME280;50333;47.436;21.390;2022-08-30T07:09:19;100809.69;;;25.28;43.29
64086;BME280;50333;47.436;21.390;2022-08-30T07:11:50;100805.53;;;25.50;43.00
64086;BME280;50333;47.436;21.390;2022-08-30T07:14:18;100800.84;;;25.43;42.70
64086;BME280;50333;47.436;21.390;2022-08-30T07:16:46;100802.38;;;25.64;42.08
64086;BME280;50333;47.436;21.390;2022-08-30T07:19:18;100804.16;;;25.36;42.64
64086;BME280;50333;47.436;21.390;2022-08-30T07:21:48;100815.59;;;25.01;43.31
64086;BME280;50333;47.436;21.390;2022-08-30T07:24:16;100809.00;;;25.50;42.87
64086;BME280;50333;47.436;21.390;2022-08-30T07:26:47;100813.47;;;25.27;42.71
64086;BME280;50333;47.436;21.390;2022-08-30T07:29:16;100812.22;;;25.59;41.91
64086;BME280;50333;47.436;21.390;2022-08-30T07:31:45;100817.69;;;25.28;42.56
64086;BME280;50333;47.436;21.390;2022-08-30T07:34:12;100818.94;;;25.34;42.49
64086;BME280;50333;47.436;21.390;2022-08-30T07:36:40;100814.22;;;25.43;42.50
64086;BME280;50333;47.436;21.390;2022-08-30T07:39:09;100814.62;;;25.26;42.56
64086;BME280;50333;47.436;21.390;2022-08-30T07:41:37;100810.19;;;25.33;42.50
64086;BME280;50333;47.436;21.390;2022-08-30T07:44:07;100822.25;;;25.11;42.55
64086;BME280;50333;47.436;21.390;2022-08-30T07:46:37;100818.84;;;25.66;41.43
64086;BME280;50333;47.436;21.390;2022-08-30T07:49:05;100822.91;;;25.99;40.56
64086;BME280;50333;47.436;21.390;2022-08-30T07:51:39;100826.00;;;25.42;41.69
64086;BME280;50333;47.436;21.390;2022-08-30T07:54:08;100829.22;;;25.90;41.46
64086;BME280;50333;47.436;21.390;2022-08-30T07:56:35;100824.16;;;25.85;41.64
64086;BME280;50333;47.436;21.390;2022-08-30T07:59:04;100817.22;;;26.23;40.37
64086;BME280;50333;47.436;21.390;2022-08-30T08:01:31;100818.38;;;26.49;39.44
64086;BME280;50333;47.436;21.390;2022-08-30T08:04:00;100818.53;;;26.10;40.20
64086;BME280;50333;47.436;21.390;2022-08-30T08:06:27;100824.97;;;26.09;40.94
64086;BME280;50333;47.436;21.390;2022-08-30T08:09:02;100823.75;;;26.03;40.88
64086;BME280;50333;47.436;21.390;2022-08-30T08:11:32;100826.69;;;26.63;39.65
64086;BME280;50333;47.436;21.390;2022-08-30T08:14:02;100827.06;;;27.19;38.94
64086;BME280;50333;47.436;21.390;2022-08-30T08:16:33;100823.34;;;27.27;38.53
64086;BME280;50333;47.436;21.390;2022-08-30T08:19:03;100831.56;;;27.41;38.39
64086;BME280;50333;47.436;21.390;2022-08-30T08:21:35;100823.50;;;27.38;38.42
64086;BME280;50333;47.436;21.390;2022-08-30T08:24:03;100820.72;;;27.61;38.14
64086;BME280;50333;47.436;21.390;2022-08-30T08:26:34;100821.72;;;27.87;36.93
64086;BME280;50333;47.436;21.390;2022-08-30T08:29:05;100818.62;;;28.18;36.70
64086;BME280;50333;47.436;21.390;2022-08-30T08:31:33;100819.69;;;28.10;36.74
64086;BME280;50333;47.436;21.390;2022-08-30T08:34:02;100822.66;;;27.98;37.30
64086;BME280;50333;47.436;21.390;2022-08-30T08:36:34;100826.19;;;28.09;36.81
64086;BME280;50333;47.436;21.390;2022-08-30T08:39:04;100821.94;;;28.53;35.77
64086;BME280;50333;47.436;21.390;2022-08-30T08:47:10;100825.31;;;27.64;37.14
64086;BME280;50333;47.436;21.390;2022-08-30T08:49:43;100827.84;;;27.83;36.67
64086;BME280;50333;47.436;21.390;2022-08-30T08:52:18;100826.31;;;27.49;37.19
64086;BME280;50333;47.436;21.390;2022-08-30T08:55:13;100822.09;;;27.48;37.42
64086;BME280;50333;47.436;21.390;2022-08-30T08:57:43;100818.41;;;27.59;37.46
64086;BME280;50333;47.436;21.390;2022-08-30T09:00:12;100809.47;;;28.23;36.51
64086;BME280;50333;47.436;21.390;2022-08-30T09:02:46;100814.28;;;28.51;35.92
64086;BME280;50333;47.436;21.390;2022-08-30T09:05:21;100807.28;;;28.88;34.88
64086;BME280;50333;47.436;21.390;2022-08-30T09:08:00;100810.44;;;29.08;34.44
64086;BME280;50333;47.436;21.390;2022-08-30T09:10:41;100805.81;;;29.05;34.79
64086;BME280;50333;47.436;21.390;2022-08-30T09:13:18;100807.88;;;28.63;35.35
64086;BME280;50333;47.436;21.390;2022-08-30T09:15:51;100802.81;;;28.06;36.26
64086;BME280;50333;47.436;21.390;2022-08-30T09:18:45;100801.75;;;28.66;35.42
64086;BME280;50333;47.436;21.390;2022-08-30T09:21:23;100794.19;;;28.79;34.89
64086;BME280;50333;47.436;21.390;2022-08-30T09:24:00;100789.56;;;28.76;35.06
64086;BME280;50333;47.436;21.390;2022-08-30T09:26:36;100790.22;;;28.58;36.40
64086;BME280;50333;47.436;21.390;2022-08-30T09:29:15;100795.91;;;28.53;36.00
64086;BME280;50333;47.436;21.390;2022-08-30T09:31:51;100794.72;;;28.51;35.65
64086;BME280;50333;47.436;21.390;2022-08-30T09:34:43;100796.16;;;28.34;35.65
64086;BME280;50333;47.436;21.390;2022-08-30T09:37:24;100794.62;;;28.33;35.75
64086;BME280;50333;47.436;21.390;2022-08-30T09:39:53;100790.28;;;28.66;34.73
64086;BME280;50333;47.436;21.390;2022-08-30T09:42:24;100795.66;;;28.69;34.71
64086;BME280;50333;47.436;21.390;2022-08-30T09:44:53;100800.97;;;28.62;35.29
64086;BME280;50333;47.436;21.390;2022-08-30T09:47:41;100796.97;;;28.42;35.71
64086;BME280;50333;47.436;21.390;2022-08-30T09:50:18;100786.19;;;28.31;35.62
64086;BME280;50333;47.436;21.390;2022-08-30T09:53:15;100791.47;;;28.75;34.34
64086;BME280;50333;47.436;21.390;2022-08-30T09:56:05;100788.06;;;28.86;34.51
64086;BME280;50333;47.436;21.390;2022-08-30T10:01:29;100787.81;;;29.05;34.19
64086;BME280;50333;47.436;21.390;2022-08-30T10:04:20;100783.59;;;29.15;33.97
64086;BME280;50333;47.436;21.390;2022-08-30T10:09:54;100784.03;;;29.17;32.84
64086;BME280;50333;47.436;21.390;2022-08-30T10:15:33;100771.44;;;29.32;32.50
64086;BME280;50333;47.436;21.390;2022-08-30T10:18:14;100772.22;;;29.40;33.34
64086;BME280;50333;47.436;21.390;2022-08-30T10:23:37;100765.28;;;29.28;33.73
64086;BME280;50333;47.436;21.390;2022-08-30T10:29:02;100764.47;;;29.20;33.21
64086;BME280;50333;47.436;21.390;2022-08-30T10:31:43;100761.94;;;29.78;31.51
64086;BME280;50333;47.436;21.390;2022-08-30T10:37:14;100757.38;;;29.93;30.78
64086;BME280;50333;47.436;21.390;2022-08-30T10:39:50;100748.91;;;30.05;30.74
64086;BME280;50333;47.436;21.390;2022-08-30T10:42:29;100743.91;;;30.00;29.97
64086;BME280;50333;47.436;21.390;2022-08-30T10:45:13;100747.34;;;29.75;30.07
64086;BME280;50333;47.436;21.390;2022-08-30T10:50:41;100751.59;;;30.37;29.83
64086;BME280;50333;47.436;21.390;2022-08-30T10:53:13;100744.53;;;30.90;28.23
64086;BME280;50333;47.436;21.390;2022-08-30T10:55:52;100741.59;;;30.31;28.55
64086;BME280;50333;47.436;21.390;2022-08-30T10:58:22;100724.94;;;30.82;28.76
64086;BME280;50333;47.436;21.390;2022-08-30T11:03:43;100725.94;;;31.17;26.36
64086;BME280;50333;47.436;21.390;2022-08-30T11:12:33;100715.00;;;31.46;26.03
64086;BME280;50333;47.436;21.390;2022-08-30T11:15:19;100712.72;;;31.41;24.49
64086;BME280;50333;47.436;21.390;2022-08-30T11:18:01;100703.38;;;31.60;24.50
64086;BME280;50333;47.436;21.390;2022-08-30T11:20:41;100699.94;;;31.60;24.32
64086;BME280;50333;47.436;21.390;2022-08-30T11:31:07;100710.41;;;31.43;23.91
64086;BME280;50333;47.436;21.390;2022-08-30T11:33:49;100700.19;;;31.76;23.13
64086;BME280;50333;47.436;21.390;2022-08-30T11:39:10;100707.72;;;31.43;23.24
64086;BME280;50333;47.436;21.390;2022-08-30T11:41:44;100705.00;;;31.95;21.64
64086;BME280;50333;47.436;21.390;2022-08-30T11:46:59;100692.84;;;31.20;23.52
64086;BME280;50333;47.436;21.390;2022-08-30T11:49:44;100704.94;;;31.57;23.06
64086;BME280;50333;47.436;21.390;2022-08-30T11:55:22;100690.44;;;31.37;24.28
64086;BME280;50333;47.436;21.390;2022-08-30T12:00:47;100681.19;;;31.38;25.20
64086;BME280;50333;47.436;21.390;2022-08-30T12:03:30;100676.56;;;31.42;25.27
64086;BME280;50333;47.436;21.390;2022-08-30T12:06:04;100681.09;;;30.86;25.95
64086;BME280;50333;47.436;21.390;2022-08-30T12:16:17;100665.50;;;30.44;26.16
64086;BME280;50333;47.436;21.390;2022-08-30T12:18:53;100665.59;;;31.11;25.57
64086;BME280;50333;47.436;21.390;2022-08-30T12:21:29;100658.09;;;31.41;24.75
64086;BME280;50333;47.436;21.390;2022-08-30T12:24:33;100662.94;;;31.04;25.72
64086;BME280;50333;47.436;21.390;2022-08-30T12:27:28;100654.63;;;30.73;26.14
64086;BME280;50333;47.436;21.390;2022-08-30T12:30:04;100649.97;;;30.85;25.29
64086;BME280;50333;47.436;21.390;2022-08-30T12:32:46;100655.81;;;31.35;24.82
64086;BME280;50333;47.436;21.390;2022-08-30T12:35:20;100653.00;;;31.53;24.42
64086;BME280;50333;47.436;21.390;2022-08-30T12:37:56;100647.22;;;31.55;24.12
64086;BME280;50333;47.436;21.390;2022-08-30T12:40:25;100643.09;;;30.69;25.54
64086;BME280;50333;47.436;21.390;2022-08-30T12:42:57;100636.59;;;30.59;25.71
64086;BME280;50333;47.436;21.390;2022-08-30T12:45:36;100634.63;;;30.74;25.57
64086;BME280;50333;47.436;21.390;2022-08-30T12:48:14;100632.84;;;31.20;24.64
64086;BME280;50333;47.436;21.390;2022-08-30T12:53:15;100632.97;;;31.02;24.80
64086;BME280;50333;47.436;21.390;2022-08-30T12:58:46;100623.53;;;31.28;25.37
64086;BME280;50333;47.436;21.390;2022-08-30T13:09:27;100612.81;;;31.25;24.65
64086;BME280;50333;47.436;21.390;2022-08-30T13:12:23;100611.06;;;31.45;24.71
64086;BME280;50333;47.436;21.390;2022-08-30T13:15:17;100605.00;;;31.37;24.76
64086;BME280;50333;47.436;21.390;2022-08-30T13:17:46;100616.19;;;31.32;24.72
64086;BME280;50333;47.436;21.390;2022-08-30T13:25:34;100591.97;;;31.29;24.65
64086;BME280;50333;47.436;21.390;2022-08-30T13:28:04;100592.56;;;31.47;23.63
64086;BME280;50333;47.436;21.390;2022-08-30T13:30:34;100590.75;;;30.85;24.82
64086;BME280;50333;47.436;21.390;2022-08-30T13:33:08;100596.25;;;30.56;24.65
64086;BME280;50333;47.436;21.390;2022-08-30T13:35:44;100594.09;;;31.03;24.96
64086;BME280;50333;47.436;21.390;2022-08-30T13:38:11;100594.91;;;30.93;24.17
64086;BME280;50333;47.436;21.390;2022-08-30T13:40:39;100584.56;;;30.84;25.08
64086;BME280;50333;47.436;21.390;2022-08-30T13:43:08;100598.75;;;30.92;24.64
64086;BME280;50333;47.436;21.390;2022-08-30T13:45:36;100604.59;;;30.79;24.41
64086;BME280;50333;47.436;21.390;2022-08-30T13:48:09;100595.81;;;30.68;24.69
64086;BME280;50333;47.436;21.390;2022-08-30T13:50:38;100591.84;;;30.91;24.59
64086;BME280;50333;47.436;21.390;2022-08-30T13:53:06;100588.75;;;30.96;24.74
64086;BME280;50333;47.436;21.390;2022-08-30T13:55:37;100580.34;;;30.87;24.93
64086;BME280;50333;47.436;21.390;2022-08-30T13:58:07;100584.16;;;30.93;24.69
64086;BME280;50333;47.436;21.390;2022-08-30T14:00:37;100583.75;;;30.98;24.41
64086;BME280;50333;47.436;21.390;2022-08-30T14:03:05;100579.63;;;30.75;25.27
64086;BME280;50333;47.436;21.390;2022-08-30T14:05:36;100573.72;;;31.02;24.61
64086;BME280;50333;47.436;21.390;2022-08-30T14:08:28;100574.84;;;31.05;24.24
64086;BME280;50333;47.436;21.390;2022-08-30T14:11:18;100581.69;;;30.53;24.58
64086;BME280;50333;47.436;21.390;2022-08-30T14:13:50;100576.31;;;30.53;24.61
64086;BME280;50333;47.436;21.390;2022-08-30T14:16:41;100577.75;;;30.65;24.54
64086;BME280;50333;47.436;21.390;2022-08-30T14:19:12;100570.75;;;30.82;24.61
64086;BME280;50333;47.436;21.390;2022-08-30T14:21:42;100559.06;;;31.07;24.00
64086;BME280;50333;47.436;21.390;2022-08-30T14:24:15;100568.41;;;30.84;24.48
64086;BME280;50333;47.436;21.390;2022-08-30T14:26:49;100574.84;;;30.38;24.66
64086;BME280;50333;47.436;21.390;2022-08-30T14:29:23;100563.94;;;30.63;25.31